Time;durP1;ratioP1;P1;durP2;ratioP2;P2;SDS_P1;SDS_P2;PMS_P1;PMS_P2;Temp;Humidity;BMP_temperature;BMP_pressure;BME280_temperature;BME280_humidity;BME280_pressure;Samples;Min_cycle;Max_cycle;Signal;HPM_P1;HPM_P2
2021/06/13 00:00:59;;;;;;;20.20;10.50;;;16.60;99.90;;;16.76;69.06;102612.16;5113900;28;20505;-68
2021/06/13 00:03:27;;;;;;;21.77;10.60;;;16.40;99.90;;;16.63;70.60;102613.06;5114168;28;20047;-67
2021/06/13 00:05:55;;;;;;;15.73;9.55;;;16.30;99.90;;;16.64;70.65;102606.84;5113784;28;20131;-67
2021/06/13 00:08:23;;;;;;;19.88;10.25;;;16.20;99.90;;;16.67;70.75;102604.16;5114067;28;20082;-67
2021/06/13 00:10:51;;;;;;;19.65;10.25;;;16.30;99.90;;;16.67;70.70;102609.50;5113996;28;20054;-67
2021/06/13 00:13:19;;;;;;;16.85;10.20;;;16.30;99.90;;;16.67;70.22;102585.47;5113666;28;20218;-67
2021/06/13 00:15:48;;;;;;;23.35;10.88;;;16.40;99.90;;;16.73;69.21;102611.28;5113637;28;20120;-67
2021/06/13 00:18:19;;;;;;;17.83;10.10;;;16.30;99.90;;;16.67;69.96;102603.25;5113782;28;20479;-67
2021/06/13 00:20:48;;;;;;;22.20;10.30;;;16.30;99.90;;;16.73;69.90;102612.19;5113986;28;20117;-67
2021/06/13 00:23:16;;;;;;;21.30;10.02;;;16.30;99.90;;;16.83;69.56;102605.03;5113867;28;20091;-67
2021/06/13 00:25:45;;;;;;;20.35;10.75;;;16.40;99.90;;;16.78;68.51;102612.19;5113504;28;20040;-67
2021/06/13 00:28:13;;;;;;;20.23;10.57;;;16.40;99.90;;;16.74;68.35;102603.25;5112892;28;20500;-67
2021/06/13 00:30:41;;;;;;;20.08;10.57;;;16.30;99.90;;;16.56;69.44;102611.31;5113310;28;20481;-67
2021/06/13 00:33:10;;;;;;;21.83;10.48;;;16.20;99.90;;;16.59;69.78;102603.28;5113468;28;20043;-67
2021/06/13 00:35:39;;;;;;;20.98;11.00;;;16.20;99.90;;;16.64;69.86;102614.88;5113486;28;20043;-67
2021/06/13 00:38:07;;;;;;;23.75;10.05;;;16.30;99.90;;;16.64;69.59;102603.28;5113492;28;20426;-67
2021/06/13 00:40:35;;;;;;;19.90;10.35;;;16.20;99.90;;;16.61;68.94;102606.84;5113420;28;20122;-67
2021/06/13 00:43:04;;;;;;;20.38;10.77;;;16.20;99.90;;;16.61;68.75;102616.63;5113452;28;20427;-67
2021/06/13 00:45:32;;;;;;;15.02;8.95;;;16.20;99.90;;;16.64;68.51;102617.53;5113061;28;20151;-67
2021/06/13 00:48:00;;;;;;;11.00;7.25;;;16.20;99.90;;;16.51;68.34;102612.22;5094965;28;20495;-67
2021/06/13 00:50:34;;;;;;;13.85;7.57;;;16.10;99.90;;;16.44;67.66;102610.38;5094928;28;20146;-67
2021/06/13 00:53:07;;;;;;;14.55;7.95;;;16.10;99.90;;;16.28;67.97;102613.06;5094945;28;20055;-67
2021/06/13 00:55:40;;;;;;;9.25;6.55;;;15.90;99.90;;;16.24;68.92;102610.38;5094670;28;20469;-67
2021/06/13 00:58:09;;;;;;;9.32;6.03;;;15.90;99.90;;;16.14;69.50;102619.31;5113065;28;20066;-67
2021/06/13 01:00:39;;;;;;;8.77;6.68;;;15.80;99.90;;;16.00;70.76;102613.06;5095097;28;20055;-67
2021/06/13 01:03:08;;;;;;;8.65;6.85;;;15.60;99.90;;;15.90;70.73;102617.50;5094795;28;20102;-67
2021/06/13 01:05:36;;;;;;;9.63;6.68;;;15.50;99.90;;;15.80;71.24;102606.78;5094609;28;20051;-67
2021/06/13 01:08:21;;;;;;;9.10;7.60;;;15.40;99.90;;;15.86;71.81;102613.03;5094650;28;20040;-67
2021/06/13 01:11:12;;;;;;;6.90;6.28;;;15.40;99.90;;;15.96;72.70;102617.50;5094691;28;20446;-67
2021/06/13 01:13:49;;;;;;;10.52;8.75;;;15.50;99.90;;;15.86;72.43;102606.78;5101178;28;20055;-67
2021/06/13 01:16:31;;;;;;;11.05;8.02;;;15.60;99.90;;;15.94;72.96;102613.94;5112861;28;20044;-67
2021/06/13 01:19:03;;;;;;;9.77;7.78;;;15.60;99.90;;;16.01;73.06;102598.81;5094506;28;20139;-67
2021/06/13 01:21:39;;;;;;;10.65;7.50;;;15.60;99.90;;;15.83;72.66;102583.66;5112497;28;20036;-67
2021/06/13 01:24:19;;;;;;;11.85;7.97;;;15.60;99.90;;;15.84;74.15;102617.47;5112436;28;20509;-68
2021/06/13 01:27:16;;;;;;;13.93;9.73;;;15.50;99.90;;;15.98;74.61;102615.72;5094121;28;20409;-67
2021/06/13 01:29:47;;;;;;;12.60;9.07;;;15.60;99.90;;;15.82;74.79;102610.34;5094125;28;20048;-67
2021/06/13 01:32:22;;;;;;;13.77;9.93;;;15.50;99.90;;;15.65;75.53;102606.75;5094029;28;20130;-67
2021/06/13 01:34:55;;;;;;;14.32;9.27;;;15.30;99.90;;;15.69;75.46;102611.22;5094393;28;20059;-67
2021/06/13 01:37:31;;;;;;;11.02;8.52;;;15.30;99.90;;;15.73;74.37;102615.66;5112710;28;20040;-67
2021/06/13 01:40:04;;;;;;;14.27;10.00;;;15.30;99.90;;;15.70;73.34;102618.34;5093520;28;20059;-67
2021/06/13 01:42:37;;;;;;;16.75;11.95;;;15.30;99.90;;;15.69;72.95;102614.78;5094066;28;20044;-67
2021/06/13 01:45:12;;;;;;;17.20;11.38;;;15.30;99.90;;;15.69;72.66;102611.22;5094323;28;20404;-68
2021/06/13 01:47:41;;;;;;;17.00;10.68;;;15.30;99.90;;;15.73;72.53;102611.22;5094270;28;20051;-67
2021/06/13 01:50:14;;;;;;;15.45;10.15;;;15.30;99.90;;;15.75;72.74;102606.78;5094393;28;20108;-67
2021/06/13 01:52:43;;;;;;;18.85;11.98;;;15.40;99.90;;;15.78;72.14;102613.88;5093833;28;20043;-67
2021/06/13 01:55:15;;;;;;;21.02;12.52;;;15.40;99.90;;;15.74;71.88;102605.00;5093822;28;20075;-67
2021/06/13 01:57:45;;;;;;;15.98;10.77;;;15.30;99.90;;;15.77;72.58;102617.47;5093928;28;20063;-67
2021/06/13 02:00:37;;;;;;;15.95;11.52;;;15.30;99.90;;;15.85;73.59;102608.56;5093888;28;20048;-67
2021/06/13 02:03:14;;;;;;;11.35;9.60;;;15.40;99.90;;;15.90;73.96;102605.91;5094108;28;20100;-67
2021/06/13 02:05:54;;;;;;;8.60;7.80;;;15.50;99.90;;;15.73;74.36;102603.22;5094055;28;20067;-67
2021/06/13 02:08:24;;;;;;;8.77;7.32;;;15.30;99.90;;;15.67;74.56;102605.88;5112024;28;20469;-67
2021/06/13 02:11:04;;;;;;;11.10;9.20;;;15.30;99.90;;;15.79;74.60;102597.00;5093997;28;20082;-67
2021/06/13 02:13:33;;;;;;;11.57;9.43;;;15.30;99.90;;;15.77;74.74;102599.69;5094315;28;20082;-67
2021/06/13 02:16:09;;;;;;;10.88;7.82;;;15.40;99.90;;;15.70;74.69;102597.88;5093953;28;20048;-67
2021/06/13 02:18:39;;;;;;;13.93;9.38;;;15.40;99.90;;;15.66;73.62;102600.53;5093909;28;20484;-67
2021/06/13 02:21:09;;;;;;;13.35;10.15;;;15.30;99.90;;;15.67;73.60;102603.22;5093928;28;20067;-67
2021/06/13 02:23:40;;;;;;;12.48;9.13;;;15.30;99.90;;;15.72;74.66;102600.53;5093890;28;20139;-67
2021/06/13 02:26:10;;;;;;;10.00;8.50;;;15.30;99.90;;;15.79;75.50;102605.00;5112054;28;20043;-67
2021/06/13 02:28:42;;;;;;;11.98;9.90;;;15.40;99.90;;;15.79;75.44;102602.34;5111850;28;20485;-67
2021/06/13 02:31:16;;;;;;;12.95;9.68;;;15.40;99.90;;;15.84;75.35;102605.91;5093784;28;20122;-67
2021/06/13 02:33:47;;;;;;;10.70;8.60;;;15.40;99.90;;;15.89;75.17;102609.50;5093727;28;20184;-67
2021/06/13 02:36:19;;;;;;;15.95;10.60;;;15.50;99.90;;;15.94;74.95;102616.59;5093853;28;20047;-67
2021/06/13 02:38:56;;;;;;;19.25;11.10;;;15.50;99.90;;;15.96;74.25;102616.59;5093767;28;20076;-67
2021/06/13 02:41:25;;;;;;;22.42;12.40;;;15.50;99.90;;;15.97;73.35;102613.03;5111672;28;20511;-67
2021/06/13 02:43:55;;;;;;;19.48;12.07;;;15.50;99.90;;;16.00;72.99;102603.28;5093970;28;20101;-67
2021/06/13 02:46:34;;;;;;;22.30;11.98;;;15.60;99.90;;;16.05;72.98;102604.16;5111751;28;20032;-67
2021/06/13 02:49:02;;;;;;;20.17;11.27;;;15.60;99.90;;;16.19;72.96;102614.84;5111903;28;20070;-67
2021/06/13 02:51:35;;;;;;;18.58;10.73;;;15.80;99.90;;;16.22;73.31;102609.50;5112662;28;20470;-67
2021/06/13 02:54:09;;;;;;;19.65;11.15;;;15.80;99.90;;;15.97;72.54;102583.66;5097207;28;20138;-67
2021/06/13 02:56:46;;;;;;;18.52;11.23;;;15.70;99.90;;;15.94;72.22;102605.94;5097208;28;20055;-67
2021/06/13 02:59:26;;;;;;;19.38;11.38;;;15.60;99.90;;;15.94;72.70;102613.03;5115478;28;20048;-67
2021/06/13 03:01:58;;;;;;;19.13;11.30;;;15.50;99.90;;;15.96;72.98;102611.25;5097129;28;20059;-67
2021/06/13 03:04:28;;;;;;;18.92;12.10;;;15.50;99.90;;;15.99;73.21;102606.81;5097108;28;20496;-67
2021/06/13 03:06:59;;;;;;;21.02;12.57;;;15.60;99.90;;;15.92;73.06;102604.13;5096795;28;20048;-67
2021/06/13 03:09:31;;;;;;;20.33;12.88;;;15.50;99.90;;;15.95;72.92;102612.16;5097225;28;20498;-67
2021/06/13 03:12:03;;;;;;;19.00;12.02;;;15.50;99.90;;;16.03;73.43;102605.03;5097023;28;20113;-67
2021/06/13 03:14:36;;;;;;;17.65;11.77;;;15.60;99.90;;;16.01;73.46;102609.47;5096743;28;20135;-68
2021/06/13 03:17:08;;;;;;;18.70;12.23;;;15.60;99.90;;;16.08;73.09;102611.28;5096887;28;20074;-67
2021/06/13 03:19:41;;;;;;;26.20;13.05;;;15.70;99.90;;;16.12;72.88;102610.41;5096812;28;20489;-67
2021/06/13 03:22:10;;;;;;;24.50;11.38;;;15.70;99.90;;;16.14;72.92;102611.28;5115098;28;20054;-68
2021/06/13 03:24:43;;;;;;;23.25;11.90;;;15.70;99.90;;;16.19;72.88;102610.41;5096663;28;20043;-67
2021/06/13 03:27:12;;;;;;;13.80;9.70;;;15.80;99.90;;;15.94;73.43;102583.69;5096432;28;20096;-67
2021/06/13 03:29:43;;;;;;;18.85;11.60;;;15.70;99.90;;;16.07;74.46;102612.16;5096561;28;20069;-67
2021/06/13 03:32:15;;;;;;;19.20;12.43;;;15.70;99.90;;;15.96;74.31;102596.16;5096738;28;20043;-67
2021/06/13 03:34:46;;;;;;;23.90;14.45;;;15.70;99.90;;;16.10;73.80;102615.72;5115187;28;20044;-67
2021/06/13 03:37:16;;;;;;;18.20;13.38;;;15.70;99.90;;;15.98;73.69;102604.16;5096409;28;20898;-67
2021/06/13 03:39:46;;;;;;;19.00;12.77;;;15.60;99.90;;;15.95;73.66;102612.16;5114787;28;20054;-67
2021/06/13 03:42:16;;;;;;;22.33;14.15;;;15.60;99.90;;;15.97;73.06;102613.94;5114633;28;20047;-67
2021/06/13 03:44:47;;;;;;;23.63;12.70;;;15.60;99.90;;;15.86;73.03;102605.03;5114457;28;20036;-67
2021/06/13 03:47:16;;;;;;;;;;;15.50;99.90;;;15.89;73.37;102609.50;5115152;28;20035;-67
2021/06/13 03:49:47;;;;;;;20.27;13.20;;;15.50;99.90;;;15.98;73.42;102615.72;5096173;28;20389;-67
2021/06/13 03:52:16;;;;;;;;;;;15.60;99.90;;;15.94;73.27;102608.59;5115027;28;20062;-67
2021/06/13 03:54:44;;;;;;;21.63;12.63;;;15.60;99.90;;;16.04;72.83;102615.75;5095985;28;19965;-67
2021/06/13 03:57:15;;;;;;;18.67;12.93;;;15.70;99.90;;;16.02;72.62;102617.50;5114422;28;20063;-67
2021/06/13 03:59:45;;;;;;;15.15;10.38;;;15.70;99.90;;;15.97;74.23;102618.38;5114442;28;20117;-67
2021/06/13 04:02:15;;;;;;;;;;;15.60;99.90;;;15.82;73.88;102616.59;5096407;28;20120;-67
2021/06/13 04:04:49;;;;;;;5.50;5.00;;;15.50;99.90;;;15.77;73.67;102606.78;5094761;28;19931;-67
2021/06/13 04:07:19;;;;;;;4.93;4.53;;;15.40;99.90;;;15.69;74.45;102612.09;5114051;28;20293;-67
2021/06/13 04:09:48;;;;;;;9.77;5.53;;;15.40;99.90;;;15.50;75.19;102622.72;5113897;28;20385;-67
2021/06/13 04:12:21;;;;;;;6.28;4.32;;;15.10;99.90;;;15.59;74.79;102620.97;5114288;28;20039;-67
2021/06/13 04:14:50;;;;;;;4.05;3.65;;;15.20;99.90;;;15.47;73.99;102628.03;5114615;28;20078;-67
2021/06/13 04:17:23;;;;;;;5.00;4.50;;;15.10;99.90;;;15.40;73.46;102629.75;5114269;28;20071;-67
2021/06/13 04:19:52;;;;;;;4.88;3.40;;;15.00;99.90;;;15.41;73.71;102630.66;5114155;28;20056;-67
2021/06/13 04:22:22;;;;;;;5.88;5.28;;;15.00;99.90;;;15.47;74.76;102628.03;5114092;28;20040;-67
2021/06/13 04:24:54;;;;;;;5.90;4.78;;;15.10;99.90;;;15.16;75.96;102573.66;5114149;28;20044;-67
2021/06/13 04:27:25;;;;;;;6.47;5.13;;;15.10;99.90;;;15.68;76.41;102641.47;5113537;28;20039;-67
2021/06/13 04:29:58;;;;;;;7.35;5.55;;;15.20;99.90;;;15.66;77.82;102637.91;5095708;28;20171;-67
2021/06/13 04:32:28;;;;;;;9.50;6.65;;;15.20;99.90;;;15.73;78.09;102643.25;5113946;28;20508;-67
2021/06/13 04:34:58;;;;;;;;;;;15.30;99.90;;;15.66;76.27;102636.09;5114383;28;20044;-67
2021/06/13 04:37:26;;;;;;;10.98;8.27;;;15.30;99.90;;;15.55;76.98;102640.50;5113808;28;19920;-67
2021/06/13 04:39:54;;;;;;;10.18;7.70;;;15.20;99.90;;;15.72;77.76;102644.13;5113761;28;20050;-67
2021/06/13 04:42:23;;;;;;;7.95;6.05;;;15.20;99.90;;;15.82;77.34;102648.59;5113631;28;20065;-67
2021/06/13 04:44:51;;;;;;;11.73;7.60;;;15.40;99.90;;;16.02;77.43;102657.56;5113576;28;20047;-67
2021/06/13 04:47:20;;;;;;;9.63;7.32;;;15.60;99.90;;;16.12;76.67;102666.47;5113577;28;20104;-67
2021/06/13 04:49:54;;;;;;;10.25;7.93;;;15.70;99.90;;;16.14;75.69;102662.03;5113617;28;20101;-67
2021/06/13 04:52:25;;;;;;;11.52;8.00;;;15.70;99.90;;;16.03;75.04;102623.72;5113553;28;20044;-67
2021/06/13 04:55:07;;;;;;;13.00;8.82;;;15.80;99.90;;;16.16;76.53;102660.25;5113524;28;20435;-67
2021/06/13 04:58:06;;;;;;;13.38;9.07;;;15.80;99.90;;;15.62;78.01;102668.13;5113519;28;20048;-67
2021/06/13 05:00:34;;;;;;;15.15;9.25;;;15.30;99.90;;;15.78;78.97;102659.25;5113432;28;20035;-67
2021/06/13 05:03:03;;;;;;;14.85;8.60;;;15.30;99.90;;;16.14;78.10;102660.22;5113362;28;20391;-67
2021/06/13 05:05:33;;;;;;;12.75;8.85;;;15.70;99.90;;;16.25;77.47;102662.91;5113264;28;20437;-68
2021/06/13 05:08:01;;;;;;;12.87;9.00;;;15.80;99.90;;;15.98;78.50;102673.56;5094872;28;20056;-68
2021/06/13 05:10:30;;;;;;;19.75;9.82;;;15.70;99.90;;;15.64;79.18;102677.03;5113207;28;20285;-67
2021/06/13 05:12:58;;;;;;;17.70;10.63;;;15.30;99.90;;;15.75;80.19;102659.25;5113188;28;20101;-67
2021/06/13 05:15:28;;;;;;;16.80;9.60;;;15.40;99.90;;;16.33;79.62;102676.28;5113059;28;20050;-67
2021/06/13 05:17:56;;;;;;;14.65;9.75;;;15.80;99.90;;;16.56;78.77;102667.44;5113056;28;20120;-68
2021/06/13 05:20:25;;;;;;;14.52;9.90;;;16.10;99.90;;;16.86;78.31;102680.75;5113039;28;20043;-67
2021/06/13 05:22:57;;;;;;;19.60;10.15;;;16.40;99.90;;;16.97;77.25;102680.75;5113048;28;20051;-68
2021/06/13 05:25:29;;;;;;;18.05;11.23;;;16.60;99.90;;;17.18;76.65;102694.06;5112996;28;20097;-67
2021/06/13 05:27:59;;;;;;;14.90;10.32;;;16.90;99.90;;;17.28;76.06;102695.84;5113043;28;20046;-68
2021/06/13 05:30:30;;;;;;;20.58;10.88;;;17.00;99.90;;;17.46;75.82;102684.19;5113255;28;20068;-68
2021/06/13 05:32:59;;;;;;;18.67;11.13;;;17.10;99.90;;;17.58;75.09;102689.50;5112755;28;20051;-68
2021/06/13 05:35:29;;;;;;;22.60;10.32;;;17.30;99.90;;;17.80;74.88;102692.09;5113337;28;20476;-68
2021/06/13 05:37:59;;;;;;;23.15;10.65;;;17.50;99.90;;;17.71;72.93;102707.31;5112831;28;20074;-68
2021/06/13 05:40:29;;;;;;;19.95;9.85;;;17.50;99.90;;;17.06;73.52;102609.44;5094638;28;20047;-68
2021/06/13 05:42:58;;;;;;;22.20;10.80;;;17.30;99.90;;;17.81;73.15;102709.03;5112915;28;20043;-68
2021/06/13 05:45:31;;;;;;;18.95;11.52;;;17.40;99.90;;;18.00;73.11;102718.78;5112863;28;20311;-68
2021/06/13 05:48:00;;;;;;;17.30;8.80;;;17.60;99.90;;;17.88;68.73;102718.84;5112428;28;20050;-68
2021/06/13 05:50:30;;;;;;;20.13;11.23;;;17.60;99.90;;;17.78;69.64;102720.69;5112637;28;20503;-68
2021/06/13 05:53:01;;;;;;;17.95;10.57;;;17.40;99.90;;;17.95;70.29;102724.16;5112767;28;20105;-68
2021/06/13 05:55:31;;;;;;;19.98;10.75;;;17.60;99.90;;;18.01;70.75;102723.22;5112398;28;20055;-68
2021/06/13 05:58:00;;;;;;;21.98;11.65;;;17.70;99.90;;;18.01;70.30;102728.59;5112572;28;20096;-67
2021/06/13 06:00:31;;;;;;;19.35;11.15;;;17.70;99.90;;;18.13;69.78;102733.88;5112700;28;20096;-68
2021/06/13 06:03:00;;;;;;;21.08;11.07;;;17.80;99.90;;;18.28;69.65;102743.59;5112456;28;20105;-68
2021/06/13 06:05:31;;;;;;;20.90;10.23;;;17.90;99.90;;;18.27;68.30;102744.53;5094313;28;20087;-68
2021/06/13 06:08:01;;;;;;;16.98;10.15;;;17.90;99.90;;;18.39;67.76;102742.63;5112285;28;20043;-67
2021/06/13 06:10:32;;;;;;;17.13;9.63;;;18.10;99.90;;;18.49;66.66;102744.41;5112262;28;20374;-68
2021/06/13 06:13:04;;;;;;;17.83;10.15;;;18.20;99.90;;;18.55;66.61;102752.41;5112438;28;20052;-68
2021/06/13 06:15:35;;;;;;;18.75;10.23;;;18.30;99.90;;;18.71;66.15;102745.13;5112314;28;20363;-68
2021/06/13 06:18:04;;;;;;;16.75;9.70;;;18.50;99.90;;;18.64;65.90;102746.09;5112343;28;20063;-68
2021/06/13 06:20:33;;;;;;;22.63;9.77;;;18.40;99.90;;;18.44;66.34;102735.50;5112345;28;20185;-68
2021/06/13 06:23:04;;;;;;;14.10;7.80;;;18.20;99.90;;;18.57;63.75;102747.91;5112220;28;20120;-68
2021/06/13 06:25:33;;;;;;;;;;;18.20;99.90;;;18.66;63.69;102729.06;5112619;28;20051;-68
2021/06/13 06:28:02;;;;;;;16.33;8.57;;;18.40;99.90;;;18.91;63.45;102743.19;5115288;28;20321;-68
2021/06/13 06:30:30;;;;;;;12.98;8.00;;;18.60;99.90;;;18.86;62.86;102745.91;5116136;28;20518;-68
2021/06/13 06:32:59;;;;;;;15.98;8.98;;;18.50;99.90;;;18.89;63.33;102748.53;5116219;28;20497;-68
2021/06/13 06:35:28;;;;;;;12.30;8.35;;;18.60;99.90;;;19.02;62.52;102752.03;5115910;28;20135;-68
2021/06/13 06:37:57;;;;;;;18.73;9.10;;;18.70;99.90;;;19.01;62.09;102754.72;5097444;28;20088;-68
2021/06/13 06:40:26;;;;;;;18.92;8.93;;;18.80;99.90;;;18.95;62.13;102760.13;5116007;28;20063;-68
2021/06/13 06:42:55;;;;;;;17.50;9.20;;;18.70;99.90;;;19.01;63.01;102766.31;5116286;28;20044;-68
2021/06/13 06:45:24;;;;;;;18.60;9.43;;;18.70;99.90;;;18.93;62.74;102769.06;5097571;28;20066;-68
2021/06/13 06:47:52;;;;;;;20.58;9.45;;;18.70;99.90;;;18.77;63.11;102779.94;5097599;28;20078;-68
2021/06/13 06:50:22;;;;;;;14.45;7.70;;;18.50;99.90;;;18.40;61.19;102668.50;5115493;28;20461;-68
2021/06/13 06:52:50;;;;;;;12.88;7.78;;;18.70;99.90;;;19.04;60.91;102782.41;5115894;28;20040;-68
2021/06/13 06:55:19;;;;;;;18.20;8.57;;;18.80;99.90;;;19.03;60.80;102791.34;5115622;28;20120;-68
2021/06/13 06:57:50;;;;;;;18.70;8.77;;;18.80;99.90;;;18.74;61.71;102788.88;5115399;28;20393;-67
2021/06/13 07:00:19;;;;;;;16.30;8.18;;;18.50;99.90;;;18.75;60.71;102781.75;5115960;28;20048;-67
2021/06/13 07:02:48;;;;;;;16.50;7.75;;;18.40;99.90;;;19.11;61.08;102777.84;5097323;28;20071;-68
2021/06/13 07:05:16;;;;;;;15.88;8.45;;;18.70;99.90;;;19.10;60.10;102776.09;5115304;28;20044;-67
2021/06/13 07:07:45;;;;;;;15.27;8.02;;;18.80;99.90;;;19.34;60.28;102786.59;5097234;28;20055;-68
2021/06/13 07:10:14;;;;;;;16.90;8.50;;;19.00;99.90;;;19.32;59.19;102799.13;5115423;28;20040;-67
2021/06/13 07:12:44;;;;;;;15.82;8.68;;;19.00;99.90;;;19.51;58.70;102784.66;5115155;28;20046;-68
2021/06/13 07:15:15;;;;;;;15.05;8.27;;;19.20;99.90;;;19.56;59.44;102783.72;5115139;28;20130;-68
2021/06/13 07:17:43;;;;;;;17.30;8.45;;;19.20;99.90;;;19.49;59.01;102781.13;5114846;28;20048;-67
2021/06/13 07:20:14;;;;;;;16.77;8.15;;;19.20;99.90;;;19.49;58.28;102781.13;5096852;28;20062;-67
2021/06/13 07:22:43;;;;;;;13.55;7.32;;;19.20;99.90;;;19.62;58.27;102782.75;5115214;28;20047;-67
2021/06/13 07:25:13;;;;;;;13.75;7.88;;;19.30;99.90;;;19.83;59.01;102789.66;5115099;28;20062;-68
2021/06/13 07:27:42;;;;;;;17.65;8.40;;;19.50;99.90;;;19.69;57.90;102784.44;5115223;28;20039;-68
2021/06/13 07:30:16;;;;;;;13.02;7.45;;;19.50;99.90;;;19.97;56.89;102798.44;5115425;28;20039;-67
2021/06/13 07:32:44;;;;;;;14.05;8.48;;;19.60;99.90;;;20.04;56.38;102798.34;5115195;28;20039;-68
2021/06/13 07:35:14;;;;;;;13.65;7.32;;;19.80;99.90;;;20.08;55.94;102780.38;5114928;28;20043;-67
2021/06/13 07:37:44;;;;;;;14.65;7.72;;;19.90;99.90;;;20.13;54.69;102792.84;5095406;28;20089;-68
2021/06/13 07:40:16;;;;;;;11.85;7.70;;;20.00;99.90;;;19.79;55.95;102803.13;5114593;28;20055;-67
2021/06/13 07:42:45;;;;;;;16.38;8.10;;;19.50;99.90;;;19.65;56.03;102790.75;5114946;28;20047;-67
2021/06/13 07:45:16;;;;;;;11.93;7.07;;;19.50;99.90;;;20.20;55.09;102799.97;5114957;28;20544;-67
2021/06/13 07:47:45;;;;;;;11.18;6.43;;;19.80;99.90;;;20.35;51.88;102805.13;5096585;28;20055;-67
2021/06/13 07:50:16;;;;;;;8.45;5.70;;;20.00;99.90;;;20.50;51.30;102812.97;5114784;28;20040;-68
2021/06/13 07:52:46;;;;;;;11.55;6.78;;;20.20;99.90;;;20.62;52.46;102796.69;5114772;28;20082;-68
2021/06/13 07:55:18;;;;;;;13.68;7.57;;;20.40;99.90;;;20.87;52.18;102810.63;5114692;28;20098;-67
2021/06/13 07:57:47;;;;;;;10.30;7.05;;;20.60;99.90;;;21.12;52.82;102811.13;5114360;28;20052;-67
2021/06/13 08:00:23;;;;;;;12.85;7.90;;;20.80;99.90;;;21.27;51.80;102821.66;5095906;28;20117;-68
2021/06/13 08:02:52;;;;;;;14.98;7.63;;;21.00;99.90;;;21.43;51.06;102813.28;5114567;28;20104;-68
2021/06/13 08:05:27;;;;;;;12.35;7.32;;;21.20;99.90;;;21.46;51.56;102823.13;5114455;28;20056;-68
2021/06/13 08:07:59;;;;;;;13.43;7.82;;;21.20;99.90;;;21.56;50.90;102822.03;5114355;28;20139;-68
2021/06/13 08:10:30;;;;;;;13.23;7.80;;;21.30;99.90;;;21.56;49.49;102820.22;5114228;28;20108;-68
2021/06/13 08:12:58;;;;;;;13.07;8.02;;;21.40;99.90;;;21.70;50.19;102824.47;5114275;28;20097;-68
2021/06/13 08:15:30;;;;;;;13.75;7.22;;;21.40;99.90;;;21.26;50.27;102731.03;5114198;28;20044;-68
2021/06/13 08:17:59;;;;;;;10.90;6.47;;;21.60;99.90;;;21.88;49.70;102827.72;5114218;28;20094;-68
2021/06/13 08:20:28;;;;;;;12.13;6.88;;;21.60;99.90;;;21.83;47.72;102823.34;5114118;28;20051;-68
2021/06/13 08:22:57;;;;;;;11.52;6.47;;;21.60;99.90;;;21.95;49.17;102823.97;5113853;28;20792;-68
2021/06/13 08:25:26;;;;;;;11.52;6.85;;;21.70;99.90;;;22.04;49.32;102828.28;5113816;28;20044;-68
2021/06/13 08:27:56;;;;;;;10.73;6.55;;;21.80;99.90;;;22.26;47.65;102825.09;5113646;28;20048;-68
2021/06/13 08:30:25;;;;;;;17.33;8.20;;;22.00;99.90;;;22.37;49.70;102823.09;5113794;28;20040;-68
2021/06/13 08:32:55;;;;;;;13.68;7.60;;;22.10;99.90;;;22.51;49.39;102813.78;5095524;28;20492;-68
2021/06/13 08:35:24;;;;;;;10.70;7.05;;;22.30;99.90;;;22.59;48.72;102822.63;5113852;28;20039;-68
2021/06/13 08:37:54;;;;;;;12.27;7.90;;;22.40;99.90;;;22.71;47.12;102823.22;5113669;28;20115;-67
2021/06/13 08:40:23;;;;;;;13.23;6.80;;;22.50;99.90;;;22.62;46.54;102822.56;5113689;28;20101;-68
2021/06/13 08:42:52;;;;;;;14.45;8.00;;;22.40;99.90;;;22.32;47.70;102827.69;5113136;28;20378;-68
2021/06/13 08:45:23;;;;;;;9.32;6.65;;;22.00;99.90;;;22.44;48.76;102822.03;5113489;28;20047;-68
2021/06/13 08:47:55;;;;;;;11.98;7.38;;;22.10;99.90;;;22.57;49.97;102825.34;5113270;28;20043;-68
2021/06/13 08:50:24;;;;;;;13.07;7.13;;;22.30;99.90;;;22.50;49.23;102820.09;5113158;28;20048;-68
2021/06/13 08:52:54;;;;;;;12.93;7.63;;;22.20;99.90;;;22.69;48.82;102826.88;5113339;28;20126;-68
2021/06/13 08:55:23;;;;;;;;;;;22.40;99.90;;;22.86;49.25;102827.38;5113774;28;20039;-68
2021/06/13 08:57:55;;;;;;;13.23;7.43;;;22.60;99.90;;;22.54;47.28;102749.84;5113422;28;20290;-68
2021/06/13 09:00:29;;;;;;;12.85;8.05;;;22.70;99.90;;;23.03;46.43;102825.16;5113306;28;20059;-67
2021/06/13 09:02:59;;;;;;;11.25;7.30;;;22.90;99.90;;;22.94;46.52;102817.25;5112832;28;20489;-68
2021/06/13 09:05:29;;;;;;;13.40;8.68;;;22.80;99.90;;;22.78;46.66;102824.88;5112923;28;20369;-68
2021/06/13 09:07:59;;;;;;;13.20;8.20;;;22.60;99.90;;;22.68;47.23;102828.72;5113118;28;20062;-67
2021/06/13 09:10:32;;;;;;;15.82;8.57;;;22.50;99.90;;;22.44;46.86;102837.31;5113023;28;20086;-67
2021/06/13 09:13:15;;;;;;;13.25;8.25;;;22.20;99.90;;;22.45;48.15;102822.91;5112890;28;20139;-68
2021/06/13 09:15:47;;;;;;;16.70;9.00;;;22.20;99.90;;;22.61;47.18;102820.78;5113170;28;20061;-68
2021/06/13 09:18:36;;;;;;;11.55;8.10;;;22.40;99.90;;;22.71;46.47;102792.66;5113148;28;20109;-68
2021/06/13 09:21:11;;;;;;;12.63;9.17;;;22.50;99.90;;;22.98;46.74;102827.06;5112911;28;20047;-68
2021/06/13 09:23:41;;;;;;;15.40;8.60;;;22.80;99.90;;;22.86;47.98;102822.84;5112614;28;20051;-68
2021/06/13 09:26:12;;;;;;;16.45;9.23;;;22.60;99.90;;;23.02;46.91;102816.16;5112615;28;20084;-68
2021/06/13 09:28:44;;;;;;;16.75;12.20;;;22.70;99.90;;;22.87;46.59;102819.25;5112876;28;20055;-68
2021/06/13 09:31:17;;;;;;;12.13;8.93;;;22.60;99.90;;;22.53;47.63;102823.59;5094703;28;20059;-68
2021/06/13 09:33:50;;;;;;;17.30;10.07;;;22.30;99.90;;;22.77;48.03;102817.69;5112882;28;20044;-68
2021/06/13 09:36:22;;;;;;;14.65;8.27;;;22.50;99.90;;;22.90;47.60;102827.25;5112482;28;20392;-68
2021/06/13 09:38:55;;;;;;;11.30;7.53;;;22.60;99.90;;;23.27;47.92;102819.13;5112589;28;20136;-68
2021/06/13 09:41:24;;;;;;;14.57;8.60;;;22.90;99.90;;;23.41;46.40;102811.59;5112576;28;20051;-68
2021/06/13 09:43:56;;;;;;;12.73;7.93;;;23.20;99.90;;;23.35;45.55;102809.03;5112634;28;20518;-68
2021/06/13 09:46:27;;;;;;;14.30;7.65;;;23.30;99.90;;;23.50;45.54;102808.63;5112780;28;20036;-68
2021/06/13 09:49:02;;;;;;;12.00;7.75;;;23.30;99.90;;;23.67;45.24;102814.50;5112771;28;20048;-68
2021/06/13 09:51:34;;;;;;;15.98;7.32;;;23.40;99.90;;;23.82;46.00;102816.75;5112579;28;20073;-68
2021/06/13 09:54:07;;;;;;;13.30;7.07;;;23.60;99.90;;;23.96;45.70;102817.22;5112705;28;20051;-68
2021/06/13 09:56:37;;;;;;;12.13;7.07;;;23.70;99.90;;;24.01;45.43;102809.00;5112448;28;20039;-68
2021/06/13 09:59:09;;;;;;;13.13;7.07;;;23.80;99.90;;;24.14;46.27;102818.53;5112566;28;20407;-68
2021/06/13 10:01:40;;;;;;;12.68;7.13;;;23.80;99.90;;;24.25;46.41;102820.94;5113412;28;20489;-68
2021/06/13 10:04:27;;;;;;;12.77;6.80;;;24.00;99.90;;;24.39;46.19;102821.44;5116981;28;20055;-68
2021/06/13 10:06:58;;;;;;;12.27;7.03;;;24.10;99.90;;;24.23;45.63;102803.88;5116928;28;20452;-67
2021/06/13 10:09:37;;;;;;;10.18;6.80;;;24.10;99.90;;;24.34;45.63;102807.13;5116977;28;20047;-68
2021/06/13 10:12:09;;;;;;;11.07;5.93;;;24.10;99.90;;;24.47;44.58;102819.34;5116368;28;20408;-68
2021/06/13 10:14:39;;;;;;;10.25;5.70;;;24.30;99.90;;;24.61;44.53;102811.69;5116550;28;20052;-67
2021/06/13 10:17:09;;;;;;;10.38;6.30;;;24.40;99.90;;;24.78;44.01;102815.66;5116752;28;20089;-68
2021/06/13 10:19:41;;;;;;;11.90;6.35;;;24.50;99.90;;;24.69;44.01;102813.22;5116636;28;20052;-68
2021/06/13 10:22:12;;;;;;;9.52;5.75;;;24.40;99.90;;;24.82;43.14;102813.72;5116535;28;20058;-68